Página principal
METAR-TAF:

METAR-TAF

Aeroportos :

Ecaterimburgo, Rússia

Aeroporto Internacional de Ecaterimburgo-Koltsovo

latitude: 56-50N, longitude: 060-38E, altura: 237 m

Observação actual do tempo

O boletim foi feito há 22 minutos, às 00:30 UTC
Vento 4 kt de su-sudoeste
Temperatura -18°C
Humidade 84%
Pressão 1016 hPa
Visibilidade 10 km ou mais
Poucas nuvensa uma altura de 4500 ft

METAR: USSS 230030Z 21002MPS 9999 FEW045 M18/M20 Q1016 R26R/410150 NOSIG RMK QFE741/0989

Hora: 05:52 (00:52 UTC)

Previsão

O boletim foi feito há 1 hora e 56 minutos, às 22:56 UTC
Previsão válida de 23 às 00 UTC a 23 às 24 UTC
Vento 6 kt de sudoeste
Visibilidade: 5000 m
Nuvens dispersasa uma altura de 1500 ft
Nuvens fragmentadasa uma altura de 2000 ft, Cumulonimbus.
aguaceiros fracos de neve

TAF: USSS 222256Z 2300/2324 22003MPS 5000 -SHSN SCT015 BKN020CB

Observações e previsões do tempo de mais de 4000 aeroportos (mensagens METAR e TAF).

As estações disponíveis são os pontos amarelos e vermelhos sobre o mapa.

Mova o rato sobre o mapa para ver o nome da estação.

Depois clique no ponto para visualizar as observações e previsões meteorológicas.

Para alterar o mapa : clique nos botões verdes com uma cruz preta para aumentar o zoom; no botão verde com uma pitada de zoom; ou nas setas verdes para mapas adjacentes.


METAR-TAF: